Huvudsida
METAR-TAF:

METAR-TAF

Flygplatser :

Djibouti, Djibouti

latitud: 11-33N, longitud: 043-10E, höjd: 49 m

Aktuellt väderrapport

Denna rapport gjordes för 12 timmar och 34 minuter sedan, klockan 15:00 UTC
Vind 8 kt från nord/nordost
Temperatur 34°C
Fuktighet 60%
Tryck 1002 hPa
Sikt 10 km eller mer
Spridda moln på en höjd av 13300 ft

METAR: HDAM 241500Z 03008KT 9999 SCT133 34/25 Q1002

Tid: 06:34 (03:34 UTC)

Väderprognos

Denna rapport gjordes för 10 timmar och 34 minuter sedan, klockan 17:00 UTC
Prognos gäller från 24 kl. 18 UTC till 25 kl. 18 UTC
Vind 5 kt varierande vindriktning
Sikt 10 km eller mer
Få moln på en höjd av 2000 ft
Blir
från 25 kl. 00 UTC till 25 kl. 03 UTC
Vind kt från nord
Spridda moln på en höjd av 2000 ft
Blir
mellan 25 och 06 UTC
Vind 10 kt från ost
Få moln på en höjd av 2300 ft

TAF: HDAM 241700Z 2418/2518 VRB05KT 9999 FEW020 BECMG 2500/2503 00000KT SCT020 BECMG 25062512 08010KT FEW023

Aktuella väderrapporter och prognoser från 4000 flygplatser (METAR- och TAF-rapporter).

De tillgängliga stationerna syns som gula och röda prickar på kartan.

För musen över prickarna för att se namnen på stationerna.

Klicka sedan för att få väderrapporter och prognoser.

För att ändra kartan: Klicka på de gröna knapparna med ett svart kors på för att zooma in; den gröna knappen med ett streck på för att zooma ut; eller på de gröna pilarna för angränsande kartor.


METAR-TAF: